»·PEaware :: N4065R O69-KHAF

N4065R :: O69-KHAF

FLIGHT INFORMATION

Flight Status: Arrived
Operator: Privately registered:
United States
More flights under this callsign
Pilot: Brandon D. (30736)
Aircraft: PIPER PA-32 SARATOGA
(PA32)
More flights by this aircraft type
Origin: O69 Petaluma Mun
United States
Destination: KHAF Half Moon Bay
United States
More flights between these airports :: More routes between these airports
Route: +SGD OSI
File this flight plan on PilotEdge
Remarks:
Altitude:
(Current/Filed)
5,000ft
Speed:
(Current/Filed)
120kts
Departed: 04-Aug-20 05:56 PM
Arrived: 04-Aug-20 06:58 PM
Distance/Time
Traveled:
45nm/1:02
Distance/Time
To Go:
Arrived

Flight Plot

Page will automatically refresh every two minutes.

Flight plan parsing failed; only flown route is shown


Map Options




Map Legend


Flown Route
Filed Route
Departure Airport
Arrival Airport
Navaid (VOR, NDB)
Fix

Horizontal Profiles

Position Reports

Time Latitude Longitude Heading Altitude Ground
Speed
04-Aug-20 17:41 38.256565 -122.606265 304 73ft 0kts
04-Aug-20 17:42 38.256565 -122.606265 304 73ft 0kts
04-Aug-20 17:43 38.256565 -122.606265 304 73ft 0kts
04-Aug-20 17:44 38.256565 -122.606265 304 73ft 0kts
04-Aug-20 17:46 38.258173 -122.607070 284 75ft 3kts
04-Aug-20 17:47 38.260344 -122.610816 356 82ft 0kts
04-Aug-20 17:48 38.260344 -122.610816 356 82ft 0kts
04-Aug-20 17:49 38.260344 -122.610816 356 82ft 0kts
04-Aug-20 17:50 38.260344 -122.610816 356 82ft 0kts
04-Aug-20 17:51 38.260344 -122.610816 356 82ft 0kts
04-Aug-20 17:52 38.260344 -122.610816 356 82ft 0kts
04-Aug-20 17:53 38.260344 -122.610816 356 82ft 0kts
04-Aug-20 17:54 38.260344 -122.610816 356 82ft 0kts
04-Aug-20 17:55 38.260344 -122.610816 356 82ft 0kts
04-Aug-20 17:56 38.254383 -122.598987 134 188ft 92kts
04-Aug-20 17:57 38.243991 -122.568657 125 1139ft 89kts
04-Aug-20 17:58 38.233386 -122.539573 125 1907ft 91kts
04-Aug-20 17:59 38.223779 -122.509195 101 2643ft 96kts
04-Aug-20 17:59 38.216477 -122.481274 128 3202ft 93kts
04-Aug-20 18:01 38.203502 -122.444781 106 3946ft 98kts
04-Aug-20 18:02 38.192862 -122.412175 116 4499ft 99kts
04-Aug-20 18:02 38.183208 -122.385080 116 4942ft 101kts
04-Aug-20 18:04 38.154051 -122.363677 188 4955ft 134kts
04-Aug-20 18:04 38.121725 -122.364776 181 4973ft 140kts
04-Aug-20 18:05 38.080778 -122.361869 177 4877ft 143kts
04-Aug-20 18:07 38.033689 -122.357383 181 4945ft 138kts
04-Aug-20 18:07 38.000411 -122.355057 181 4957ft 142kts
04-Aug-20 18:08 37.960506 -122.351743 173 5017ft 144kts
04-Aug-20 18:09 37.927784 -122.346902 180 5065ft 143kts
04-Aug-20 18:10 37.894845 -122.343634 180 4987ft 149kts
04-Aug-20 18:11 37.861115 -122.341892 182 5018ft 146kts
04-Aug-20 18:12 37.812181 -122.339219 176 5028ft 149kts
04-Aug-20 18:13 37.766779 -122.331222 179 4978ft 148kts
04-Aug-20 18:14 37.725743 -122.323617 177 5002ft 148kts
04-Aug-20 18:15 37.684455 -122.316748 179 5029ft 147kts
04-Aug-20 18:16 37.648290 -122.311648 175 5042ft 149kts
04-Aug-20 18:17 37.625526 -122.308778 180 5027ft 148kts
04-Aug-20 18:18 37.591314 -122.306957 184 5024ft 148kts
04-Aug-20 18:19 37.559658 -122.306964 184 5017ft 149kts
04-Aug-20 18:20 37.536237 -122.303937 171 5006ft 151kts
04-Aug-20 18:21 37.518410 -122.298940 167 4999ft 152kts
04-Aug-20 18:22 37.501134 -122.293020 177 5019ft 150kts
04-Aug-20 18:23 37.482750 -122.290340 177 4987ft 152kts
04-Aug-20 18:24 37.461588 -122.287596 179 4977ft 153kts
04-Aug-20 18:25 37.429360 -122.284568 180 5009ft 151kts
04-Aug-20 18:26 37.395974 -122.281341 177 4982ft 154kts
04-Aug-20 18:27 37.374658 -122.257395 117 4983ft 159kts
04-Aug-20 18:28 37.360401 -122.224021 119 4774ft 138kts
04-Aug-20 18:29 37.345785 -122.193779 130 4288ft 127kts
04-Aug-20 18:30 37.319837 -122.193608 210 3995ft 107kts
04-Aug-20 18:31 37.296990 -122.202496 206 4043ft 103kts
04-Aug-20 18:32 37.289536 -122.218871 286 4091ft 89kts
04-Aug-20 18:33 37.296094 -122.232321 301 4082ft 91kts
04-Aug-20 18:34 37.302656 -122.244625 312 3783ft 89kts
04-Aug-20 18:35 37.310997 -122.255172 311 3876ft 86kts
04-Aug-20 18:36 37.319002 -122.266589 308 3927ft 87kts
04-Aug-20 18:37 37.326504 -122.277329 311 3879ft 87kts
04-Aug-20 18:38 37.333572 -122.287256 310 3863ft 84kts
04-Aug-20 18:39 37.340020 -122.294683 317 3696ft 87kts
04-Aug-20 18:40 37.346531 -122.302956 312 3558ft 83kts
04-Aug-20 18:41 37.353411 -122.311921 311 3354ft 86kts
04-Aug-20 18:42 37.360114 -122.321553 307 3384ft 83kts
04-Aug-20 18:43 37.367022 -122.330850 314 3447ft 87kts
04-Aug-20 18:44 37.374878 -122.341084 317 3474ft 94kts
04-Aug-20 18:45 37.383109 -122.350794 313 3458ft 94kts
04-Aug-20 18:46 37.390850 -122.360515 314 3384ft 94kts
04-Aug-20 18:47 37.398495 -122.370984 308 3369ft 84kts
04-Aug-20 18:48 37.405502 -122.381798 312 3304ft 83kts
04-Aug-20 18:49 37.413858 -122.391916 314 3133ft 85kts
04-Aug-20 18:50 37.422497 -122.401806 321 2679ft 82kts
04-Aug-20 18:51 37.431775 -122.411287 315 2197ft 75kts
04-Aug-20 18:52 37.439883 -122.422419 313 2111ft 62kts
04-Aug-20 18:53 37.449325 -122.433654 323 2063ft 72kts
04-Aug-20 18:54 37.465165 -122.447877 317 1364ft 79kts
04-Aug-20 18:55 37.486680 -122.471117 328 572ft 84kts
04-Aug-20 18:56 37.506717 -122.493256 312 137ft 77kts
04-Aug-20 18:57 37.517077 -122.505550 318 63ft 27kts
04-Aug-20 18:58 37.518642 -122.504688 136 66ft 15kts
04-Aug-20 18:59 37.514460 -122.497793 121 45ft 22kts
04-Aug-20 19:00 37.513769 -122.495919 128 45ft 0kts

Navigation Log

Ident Type
Flight plan parsing failed, navigation log unavailable